Time;durP1;ratioP1;P1;durP2;ratioP2;P2;SDS_P1;SDS_P2;PMS_P1;PMS_P2;Temp;Humidity;BMP_temperature;BMP_pressure;BME280_temperature;BME280_humidity;BME280_pressure;Samples;Min_cycle;Max_cycle;Signal;HPM_P1;HPM_P2
2022/10/11 00:02:11;;;;;;;;;2.00;0.00;;;;;17.79;57.65;-19684.03;4981725;27;45538;-76
2022/10/11 00:04:37;;;;;;;;;1.33;0.00;;;;;17.76;58.07;-19683.38;4978886;27;45536;-76
2022/10/11 00:07:02;;;;;;;;;0.67;0.67;;;;;17.76;57.86;-19683.38;4980957;27;46362;-76
2022/10/11 00:09:28;;;;;;;;;0.00;0.00;;;;;17.70;57.39;-19681.75;4984961;27;45982;-76
2022/10/11 00:11:55;;;;;;;;;1.33;0.00;;;;;17.68;57.81;-19681.34;4991419;27;45752;-76
2022/10/11 00:14:21;;;;;;;;;1.00;1.00;;;;;17.69;57.68;-19681.63;5010702;27;48555;-76
2022/10/11 00:16:47;;;;;;;;;0.33;0.33;;;;;17.65;57.97;-19680.41;4999217;28;45602;-75
2022/10/11 00:19:12;;;;;;;;;2.00;0.00;;;;;17.66;57.73;-19680.81;4990223;27;45547;-76
2022/10/11 00:21:38;;;;;;;;;1.00;0.00;;;;;17.62;57.44;-19679.75;4997916;27;45503;-75
2022/10/11 00:24:04;;;;;;;;;0.00;0.00;;;;;17.66;57.49;-19680.69;4983847;27;45946;-76
2022/10/11 00:26:29;;;;;;;;;0.00;0.00;;;;;17.68;57.10;-19681.34;4989249;27;45548;-76
2022/10/11 00:28:54;;;;;;;;;2.00;1.00;;;;;17.66;57.33;-19680.69;4984518;28;45718;-76
2022/10/11 00:31:20;;;;;;;;;2.33;1.00;;;;;17.64;57.24;-19680.16;4996520;27;45560;-76
2022/10/11 00:33:46;;;;;;;;;0.00;0.00;;;;;17.64;56.90;-19680.28;4985054;27;45442;-76
2022/10/11 00:36:16;;;;;;;;;0.67;0.00;;;;;17.62;57.33;-19679.63;4983688;28;45877;-75
2022/10/11 00:38:43;;;;;;;;;2.00;0.00;;;;;17.65;56.78;-19680.41;4991239;27;45436;-76
2022/10/11 00:41:08;;;;;;;;;2.00;1.00;;;;;17.62;57.00;-19679.63;4991625;28;45555;-76
2022/10/11 00:43:34;;;;;;;;;2.00;0.00;;;;;17.63;56.97;-19679.88;5001125;27;46044;-75
2022/10/11 00:46:17;;;;;;;;;3.00;1.00;;;;;17.60;56.56;-19679.22;4996596;27;45462;-75
2022/10/11 00:48:55;;;;;;;;;0.00;0.00;;;;;17.59;56.48;-19678.81;4992027;27;46084;-76
2022/10/11 00:51:43;;;;;;;;;1.00;1.00;;;;;17.55;56.21;-19677.75;5001406;27;45522;-76
2022/10/11 00:54:14;;;;;;;;;1.00;0.67;;;;;17.57;56.25;-19678.41;5020427;28;48758;-76
2022/10/11 00:56:40;;;;;;;;;1.00;1.00;;;;;17.55;56.24;-19677.88;5034088;28;45696;-73
2022/10/11 00:59:12;;;;;;;;;1.67;0.33;;;;;17.45;55.95;-19675.34;5042296;28;45460;-74
2022/10/11 01:01:37;;;;;;;;;0.00;0.00;;;;;17.55;55.74;-19677.88;5040427;28;45507;-74
2022/10/11 01:04:03;;;;;;;;;0.33;0.33;;;;;17.56;55.91;-19678.00;5027476;28;45744;-74
2022/10/11 01:06:28;;;;;;;;;1.00;1.00;;;;;17.56;55.59;-19678.16;5030247;28;45435;-74
2022/10/11 01:08:55;;;;;;;;;1.33;0.00;;;;;17.54;56.06;-19677.47;5020955;28;45299;-74
2022/10/11 01:11:24;;;;;;;;;0.33;0.33;;;;;17.55;55.47;-19677.75;5033432;28;45502;-74
2022/10/11 01:14:03;;;;;;;;;0.00;0.00;;;;;17.55;55.53;-19677.75;5036122;28;45689;-74
2022/10/11 01:16:53;;;;;;;;;0.67;0.00;;;;;17.52;55.42;-19677.22;5036837;28;45453;-74
2022/10/11 01:19:34;;;;;;;;;1.00;0.00;;;;;17.38;55.22;-19673.47;5019238;28;45335;-74
2022/10/11 01:22:23;;;;;;;;;2.00;1.00;;;;;17.49;55.24;-19676.41;5004637;28;45590;-74
2022/10/11 01:25:00;;;;;;;;;1.33;0.33;;;;;17.50;55.16;-19676.53;5024946;28;45538;-74
2022/10/11 01:27:37;;;;;;;;;1.67;0.00;;;;;17.50;55.25;-19676.53;5013644;28;45627;-74
2022/10/11 01:30:16;;;;;;;;;1.00;1.00;;;;;17.48;54.99;-19676.13;5026862;28;45725;-74
2022/10/11 01:32:49;;;;;;;;;1.00;1.00;;;;;17.49;54.85;-19676.28;4983980;28;45650;-74
2022/10/11 01:35:35;;;;;;;;;0.00;0.00;;;;;17.48;55.01;-19676.13;4978518;28;48889;-73
2022/10/11 01:38:10;;;;;;;;;1.00;1.00;;;;;17.49;54.77;-19676.28;4987483;27;45428;-74
2022/10/11 01:40:48;;;;;;;;;0.33;0.33;;;;;17.48;54.47;-19676.13;4988129;27;45515;-74
2022/10/11 01:43:16;;;;;;;;;3.00;1.00;;;;;17.49;54.30;-19676.28;4978809;28;45822;-73
2022/10/11 01:45:43;;;;;;;;;1.00;0.33;;;;;17.46;54.64;-19675.47;4998202;27;46220;-73
2022/10/11 01:48:11;;;;;;;;;1.00;1.00;;;;;17.49;54.65;-19676.28;4993851;28;45315;-74
2022/10/11 01:50:45;;;;;;;;;0.00;0.00;;;;;17.48;54.44;-19676.00;4993605;27;45320;-73
2022/10/11 01:53:40;;;;;;;;;0.00;0.00;;;;;17.44;54.37;-19674.94;4981063;28;45559;-73
2022/10/11 01:56:33;;;;;;;;;0.00;0.00;;;;;17.29;54.28;-19671.06;4981637;27;45571;-75
2022/10/11 01:59:23;;;;;;;;;2.33;1.00;;;;;17.42;54.13;-19674.41;4986192;27;45462;-75
2022/10/11 02:02:14;;;;;;;;;1.33;1.00;;;;;17.37;53.71;-19673.19;4998140;28;46108;-75
2022/10/11 02:05:04;;;;;;;;;0.00;0.00;;;;;17.37;53.83;-19673.19;4979668;27;45404;-75
2022/10/11 02:07:33;;;;;;;;;0.00;0.00;;;;;17.41;54.11;-19674.28;4981179;27;45442;-75
2022/10/11 02:10:10;;;;;;;;;1.33;0.33;;;;;17.37;53.36;-19673.19;5002045;27;45870;-75
2022/10/11 02:12:41;;;;;;;;;0.00;0.00;;;;;17.33;53.56;-19672.00;4993551;27;45349;-75
2022/10/11 02:15:09;;;;;;;;;0.00;0.00;;;;;17.40;53.62;-19673.88;4984212;27;45579;-75
2022/10/11 02:17:47;;;;;;;;;0.33;0.33;;;;;17.29;53.37;-19671.19;4979139;27;47192;-75
2022/10/11 02:20:18;;;;;;;;;0.00;0.00;;;;;17.27;53.52;-19670.53;4988304;27;46363;-75
2022/10/11 02:22:47;;;;;;;;;1.67;1.00;;;;;17.34;53.55;-19672.41;4984144;28;45428;-75
2022/10/11 02:25:18;;;;;;;;;0.00;0.00;;;;;17.31;53.79;-19671.59;4993781;27;46490;-75
2022/10/11 02:27:47;;;;;;;;;0.00;0.00;;;;;17.24;53.53;-19669.84;4987216;27;46299;-75
2022/10/11 02:30:13;;;;;;;;;1.33;0.00;;;;;17.30;53.34;-19671.31;4992198;27;45404;-75
2022/10/11 02:32:42;;;;;;;;;0.00;0.00;;;;;17.30;53.28;-19671.47;4997940;27;45321;-75
2022/10/11 02:35:09;;;;;;;;;1.00;0.00;;;;;17.18;53.16;-19668.13;4982894;27;45475;-75
2022/10/11 02:37:51;;;;;;;;;0.00;0.00;;;;;17.25;53.22;-19670.13;4987748;27;45378;-75
2022/10/11 02:40:31;;;;;;;;;0.00;0.00;;;;;17.18;53.43;-19668.25;4979357;28;45518;-75
2022/10/11 02:43:10;;;;;;;;;0.00;0.00;;;;;17.16;53.33;-19667.56;4984766;27;45581;-75
2022/10/11 02:45:47;;;;;;;;;1.67;0.00;;;;;17.25;53.30;-19670.13;4989645;27;45500;-75
2022/10/11 02:48:14;;;;;;;;;0.67;0.67;;;;;17.19;52.79;-19668.38;5017126;27;46183;-75
2022/10/11 02:50:41;;;;;;;;;0.00;0.00;;;;;17.18;53.37;-19668.13;4980129;27;45641;-75
2022/10/11 02:53:08;;;;;;;;;1.00;0.00;;;;;17.19;53.56;-19668.38;4982387;27;45576;-76
2022/10/11 02:55:33;;;;;;;;;1.00;0.00;;;;;17.03;53.07;-19664.22;4985504;27;45370;-75
2022/10/11 02:57:59;;;;;;;;;1.33;0.00;;;;;17.16;53.08;-19667.56;4982524;27;45533;-75
2022/10/11 03:00:24;;;;;;;;;1.00;1.00;;;;;17.09;52.89;-19665.84;5005351;28;45387;-75
2022/10/11 03:02:50;;;;;;;;;0.00;0.00;;;;;17.14;53.16;-19667.19;4998803;27;45418;-75
2022/10/11 03:05:15;;;;;;;;;0.00;0.00;;;;;17.19;53.11;-19668.50;5000473;27;45446;-75
2022/10/11 03:07:41;;;;;;;;;0.00;0.00;;;;;17.18;53.33;-19668.13;4993866;27;46225;-76
2022/10/11 03:10:07;;;;;;;;;0.00;0.00;;;;;17.19;53.00;-19668.38;4997428;27;45692;-75
2022/10/11 03:12:33;;;;;;;;;0.00;0.00;;;;;17.18;52.86;-19668.13;5006241;27;45359;-75
2022/10/11 03:14:58;;;;;;;;;0.00;0.00;;;;;16.99;52.99;-19663.28;4993745;27;45632;-76
2022/10/11 03:17:24;;;;;;;;;2.33;0.00;;;;;17.15;52.88;-19667.31;4992079;27;45643;-76
2022/10/11 03:19:49;;;;;;;;;0.00;0.00;;;;;17.11;52.97;-19666.38;4995997;27;45572;-75
2022/10/11 03:22:15;;;;;;;;;2.00;0.00;;;;;17.12;52.87;-19666.63;4992778;27;45334;-75
2022/10/11 03:24:40;;;;;;;;;1.67;0.00;;;;;17.04;52.84;-19664.50;4994904;27;45534;-75
2022/10/11 03:27:06;;;;;;;;;0.33;0.00;;;;;17.00;52.90;-19663.56;4993976;27;47205;-75
2022/10/11 03:29:32;;;;;;;;;0.00;0.00;;;;;17.07;52.57;-19665.31;4990344;27;45511;-76
2022/10/11 03:31:58;;;;;;;;;1.00;0.00;;;;;17.04;52.95;-19664.63;4990744;27;45493;-76
2022/10/11 03:34:23;;;;;;;;;0.00;0.00;;;;;17.00;53.10;-19663.56;4997037;28;46878;-76
2022/10/11 03:36:48;;;;;;;;;0.00;0.00;;;;;17.07;52.71;-19665.44;4988668;27;46109;-75
2022/10/11 03:39:14;;;;;;;;;0.00;0.00;;;;;17.05;52.37;-19664.78;4992525;27;45487;-75
2022/10/11 03:41:39;;;;;;;;;0.00;0.00;;;;;17.02;52.23;-19664.09;4975826;28;45240;-75
2022/10/11 03:44:05;;;;;;;;;1.33;0.00;;;;;16.99;52.58;-19663.28;4998375;27;45737;-76
2022/10/11 03:46:30;;;;;;;;;3.67;0.00;;;;;16.99;52.67;-19663.16;4966578;28;45667;-75
2022/10/11 03:48:56;;;;;;;;;0.00;0.00;;;;;16.95;52.17;-19662.09;4969362;27;45533;-75
2022/10/11 03:51:21;;;;;;;;;2.00;0.00;;;;;16.89;52.35;-19660.63;4982089;27;45477;-76
2022/10/11 03:53:46;;;;;;;;;2.00;1.00;;;;;16.79;52.07;-19658.06;4980385;27;45564;-76
2022/10/11 03:56:12;;;;;;;;;0.00;0.00;;;;;16.83;52.55;-19659.00;4959983;28;47080;-73
2022/10/11 03:58:37;;;;;;;;;0.00;0.00;;;;;16.73;52.29;-19656.31;4970802;28;45487;-73
2022/10/11 04:01:03;;;;;;;;;0.00;0.00;;;;;16.76;52.49;-19657.13;4993916;27;45412;-73
2022/10/11 04:03:28;;;;;;;;;1.00;0.00;;;;;16.63;52.50;-19653.78;4978452;28;45899;-73
2022/10/11 04:05:54;;;;;;;;;2.33;0.00;;;;;16.61;52.56;-19653.38;4994226;27;47010;-73
2022/10/11 04:08:19;;;;;;;;;0.33;0.00;;;;;16.57;52.75;-19652.16;4987369;28;45505;-73
2022/10/11 04:10:44;;;;;;;;;1.33;0.00;;;;;16.58;53.07;-19652.56;5001660;27;45444;-73
2022/10/11 04:13:11;;;;;;;;;0.33;0.00;;;;;16.40;52.92;-19647.88;4976758;27;45435;-73
2022/10/11 04:15:40;;;;;;;;;2.33;0.33;;;;;16.56;52.79;-19651.91;4999919;28;46212;-73
2022/10/11 04:18:06;;;;;;;;;1.33;1.00;;;;;16.51;53.17;-19650.69;4998622;27;45834;-73
2022/10/11 04:20:31;;;;;;;;;0.00;0.00;;;;;16.49;53.19;-19650.16;4993405;27;45574;-73
2022/10/11 04:22:56;;;;;;;;;1.33;0.00;;;;;16.45;53.26;-19649.22;4992820;27;45440;-73
2022/10/11 04:25:22;;;;;;;;;0.00;0.00;;;;;16.43;53.30;-19648.56;4997524;28;46203;-73
2022/10/11 04:27:47;;;;;;;;;0.00;0.00;;;;;16.38;53.12;-19647.22;4994406;28;45506;-74
2022/10/11 04:30:13;;;;;;;;;0.00;0.00;;;;;16.34;53.48;-19646.28;5002594;27;45452;-74
2022/10/11 04:32:38;;;;;;;;;0.67;0.00;;;;;16.31;53.58;-19645.47;4979518;28;45437;-73
2022/10/11 04:35:04;;;;;;;;;1.00;1.00;;;;;16.26;53.47;-19644.13;4997326;28;45549;-73
2022/10/11 04:37:29;;;;;;;;;0.00;0.00;;;;;16.23;53.53;-19643.34;4979743;27;45576;-74
2022/10/11 04:39:54;;;;;;;;;3.67;0.00;;;;;16.23;53.56;-19643.47;4987291;27;45388;-74
2022/10/11 04:42:20;;;;;;;;;0.33;0.00;;;;;16.24;53.63;-19643.59;5004778;27;45356;-74
2022/10/11 04:44:45;;;;;;;;;0.00;0.00;;;;;16.23;53.56;-19643.47;4997422;28;46296;-74
2022/10/11 04:47:12;;;;;;;;;1.00;1.00;;;;;16.18;53.65;-19642.13;4986387;27;45543;-74
2022/10/11 04:49:37;;;;;;;;;2.00;0.67;;;;;16.13;53.65;-19640.78;4991067;28;45429;-74
2022/10/11 04:52:03;;;;;;;;;2.00;0.00;;;;;16.16;53.53;-19641.59;5005468;27;45444;-74
2022/10/11 04:54:28;;;;;;;;;1.00;0.00;;;;;16.11;53.68;-19640.25;4985036;28;46543;-74
2022/10/11 04:56:53;;;;;;;;;2.67;1.00;;;;;16.14;53.63;-19640.91;4980040;28;45594;-75
2022/10/11 04:59:19;;;;;;;;;0.00;0.00;;;;;16.05;53.66;-19638.63;4987875;28;46079;-74
2022/10/11 05:01:44;;;;;;;;;0.00;0.00;;;;;16.04;53.36;-19638.38;4975628;28;45543;-74
2022/10/11 05:04:10;;;;;;;;;0.00;0.00;;;;;16.03;53.47;-19638.25;4999125;27;46361;-74
2022/10/11 05:06:35;;;;;;;;;2.00;0.00;;;;;16.04;53.80;-19638.38;4994392;28;45499;-75
2022/10/11 05:09:00;;;;;;;;;0.00;0.00;;;;;16.00;53.43;-19637.31;4971831;28;45529;-75
2022/10/11 05:11:26;;;;;;;;;0.00;0.00;;;;;16.00;53.59;-19637.31;4971261;28;45562;-74
2022/10/11 05:13:51;;;;;;;;;2.00;0.67;;;;;16.00;53.38;-19637.31;4969324;28;48444;-73
2022/10/11 05:16:17;;;;;;;;;3.00;0.00;;;;;15.98;53.57;-19636.91;4987487;27;45454;-73
2022/10/11 05:18:42;;;;;;;;;0.00;0.00;;;;;15.96;53.25;-19636.22;4994656;27;45839;-73
2022/10/11 05:21:16;;;;;;;;;0.67;0.67;;;;;15.94;53.41;-19635.69;4989985;27;45501;-75
2022/10/11 05:23:42;;;;;;;;;2.00;0.33;;;;;15.93;53.19;-19635.56;4989094;27;46364;-74
2022/10/11 05:26:08;;;;;;;;;0.33;0.33;;;;;15.93;53.05;-19635.44;4994361;28;45610;-72
2022/10/11 05:28:33;;;;;;;;;2.00;0.00;;;;;15.87;52.83;-19633.81;4990043;27;45298;-72
2022/10/11 05:30:59;;;;;;;;;0.00;0.00;;;;;15.74;52.78;-19630.47;5002414;27;45472;-73
2022/10/11 05:33:25;;;;;;;;;2.00;0.67;;;;;15.89;52.97;-19634.47;4994917;27;46097;-73
2022/10/11 05:35:50;;;;;;;;;3.00;0.00;;;;;15.79;53.08;-19631.81;4996549;27;45417;-75
2022/10/11 05:38:16;;;;;;;;;2.67;0.00;;;;;15.78;52.83;-19631.66;4999766;28;45524;-74
2022/10/11 05:40:41;;;;;;;;;0.67;0.00;;;;;15.87;52.76;-19633.94;4974498;28;46559;-75
2022/10/11 05:43:07;;;;;;;;;0.00;0.00;;;;;15.86;52.60;-19633.56;4986361;27;46467;-74
2022/10/11 05:45:37;;;;;;;;;0.00;0.00;;;;;15.85;52.62;-19633.41;4995427;27;45542;-74
2022/10/11 05:48:03;;;;;;;;;1.33;1.00;;;;;15.79;52.98;-19631.94;4985673;27;45531;-78
2022/10/11 05:50:29;;;;;;;;;0.67;0.00;;;;;15.73;52.90;-19630.34;4977253;27;45440;-79
2022/10/11 05:52:54;;;;;;;;;1.00;1.00;;;;;15.77;52.61;-19631.41;4981603;27;45579;-76
2022/10/11 05:55:20;;;;;;;;;3.00;0.00;;;;;15.78;52.94;-19631.53;5027486;27;45496;-76
2022/10/11 05:57:45;;;;;;;;;2.00;0.67;;;;;15.76;52.58;-19631.00;5004999;27;45865;-76
2022/10/11 06:00:11;;;;;;;;;0.67;0.67;;;;;15.78;52.74;-19631.66;4983443;27;45477;-76
2022/10/11 06:02:36;;;;;;;;;0.00;0.00;;;;;15.81;52.80;-19632.47;4993911;27;46607;-79
2022/10/11 06:05:02;;;;;;;;;0.33;0.00;;;;;15.78;52.67;-19631.66;4986795;27;45513;-79
2022/10/11 06:07:27;;;;;;;;;3.00;1.00;;;;;15.74;52.51;-19630.47;4982150;28;45430;-79
2022/10/11 06:09:53;;;;;;;;;1.33;0.33;;;;;15.70;52.64;-19629.38;4982677;27;45291;-80
2022/10/11 06:12:18;;;;;;;;;4.00;4.00;;;;;15.72;53.11;-19630.06;4999458;27;46378;-80
2022/10/11 06:14:43;;;;;;;;;0.00;0.00;;;;;15.70;52.73;-19629.38;4991735;27;45376;-78
2022/10/11 06:17:09;;;;;;;;;0.00;0.00;;;;;15.70;52.60;-19629.53;4984980;27;45320;-78
2022/10/11 06:19:35;;;;;;;;;1.00;0.67;;;;;15.68;52.95;-19628.84;4984304;27;45602;-79
2022/10/11 06:22:01;;;;;;;;;2.00;1.00;;;;;15.66;53.04;-19628.31;4989659;28;45347;-79
2022/10/11 06:24:26;;;;;;;;;0.33;0.33;;;;;15.66;53.00;-19628.31;5003884;27;45576;-78
2022/10/11 06:26:52;;;;;;;;;2.00;1.00;;;;;15.59;53.03;-19626.72;4980799;28;45494;-78
2022/10/11 06:29:17;;;;;;;;;1.67;1.67;;;;;15.65;52.95;-19628.19;4995766;27;45468;-81
2022/10/11 06:31:43;;;;;;;;;1.33;1.00;;;;;15.64;53.70;-19627.91;5010206;27;46162;-79
2022/10/11 06:34:08;;;;;;;;;1.00;1.00;;;;;15.59;53.71;-19626.56;4993704;28;45727;-80
2022/10/11 06:36:34;;;;;;;;;1.00;1.00;;;;;15.61;53.71;-19627.25;4999920;27;45374;-80
2022/10/11 06:39:00;;;;;;;;;2.00;1.00;;;;;15.56;54.02;-19625.91;5025187;27;45600;-80
2022/10/11 06:41:28;;;;;;;;;0.00;0.00;;;;;15.59;53.50;-19626.72;5044055;27;45919;-80
2022/10/11 06:43:54;;;;;;;;;0.00;0.00;;;;;15.58;53.67;-19626.44;4998397;27;45326;-81
2022/10/11 06:46:22;;;;;;;;;0.67;0.67;;;;;15.61;54.16;-19627.09;4995395;27;45399;-80
2022/10/11 06:48:47;;;;;;;;;3.33;1.00;;;;;15.58;53.86;-19626.44;4995138;27;45448;-80
2022/10/11 06:51:15;;;;;;;;;2.67;1.00;;;;;15.58;54.07;-19626.44;4995149;27;46217;-80
2022/10/11 06:53:41;;;;;;;;;0.50;0.50;;;;;15.60;54.21;-19626.97;4977985;28;45468;-80
2022/10/11 06:56:11;;;;;;;;;9.67;9.67;;;;;15.61;54.05;-19627.09;4994038;27;45388;-80
2022/10/11 06:58:38;;;;;;;;;2.33;2.33;;;;;15.63;54.17;-19627.63;4995590;27;45373;-80
2022/10/11 07:01:06;;;;;;;;;2.67;2.67;;;;;15.61;54.20;-19627.09;5015630;27;45408;-80
2022/10/11 07:03:32;;;;;;;;;0.67;0.67;;;;;15.53;54.06;-19625.09;5045260;27;45305;-80
2022/10/11 07:06:06;;;;;;;;;1.67;0.00;;;;;15.59;54.02;-19626.56;4995167;27;45312;-80
2022/10/11 07:08:32;;;;;;;;;1.00;1.00;;;;;15.62;53.71;-19627.38;4995621;27;45423;-80
2022/10/11 07:11:03;;;;;;;;;1.00;1.00;;;;;15.53;53.99;-19624.97;4994980;27;45604;-80
2022/10/11 07:13:28;;;;;;;;;6.00;5.33;;;;;15.68;53.65;-19628.84;4995269;27;45319;-80
2022/10/11 07:15:54;;;;;;;;;4.67;1.33;;;;;15.68;53.59;-19628.97;4995289;27;45389;-80
2022/10/11 07:18:20;;;;;;;;;3.00;0.00;;;;;15.69;54.03;-19629.25;4995909;27;45348;-80
2022/10/11 07:20:45;;;;;;;;;3.00;1.00;;;;;15.68;53.32;-19628.97;4977159;28;48630;-80
2022/10/11 07:23:11;;;;;;;;;2.33;1.67;;;;;15.68;53.57;-19628.97;4995224;27;45504;-80
2022/10/11 07:25:37;;;;;;;;;4.00;2.67;;;;;15.70;53.63;-19629.53;4995313;27;45307;-80
2022/10/11 07:28:02;;;;;;;;;1.00;1.00;;;;;15.65;53.44;-19628.03;4995140;27;45294;-80
2022/10/11 07:30:27;;;;;;;;;2.00;1.00;;;;;15.73;53.11;-19630.34;4995009;27;46012;-80
2022/10/11 07:32:53;;;;;;;;;1.33;0.67;;;;;15.76;53.40;-19631.00;4977276;28;45302;-80
2022/10/11 07:35:18;;;;;;;;;1.67;0.00;;;;;15.76;53.04;-19631.00;4995102;27;45624;-80
2022/10/11 07:37:43;;;;;;;;;1.00;1.00;;;;;15.80;53.46;-19632.22;4994209;27;45365;-80
2022/10/11 07:40:10;;;;;;;;;0.00;0.00;;;;;15.80;53.25;-19632.22;4995023;28;46027;-80
2022/10/11 07:42:35;;;;;;;;;1.00;0.67;;;;;15.89;53.14;-19634.47;4994756;27;45438;-80
2022/10/11 07:45:01;;;;;;;;;5.00;2.00;;;;;15.90;52.89;-19634.75;5039154;27;45455;-80
2022/10/11 07:47:26;;;;;;;;;2.00;1.00;;;;;15.90;53.01;-19634.63;5025584;27;45483;-80
2022/10/11 07:49:52;;;;;;;;;3.00;1.33;;;;;15.92;53.30;-19635.28;5046891;27;46460;-80
2022/10/11 07:52:17;;;;;;;;;1.33;1.00;;;;;15.93;52.69;-19635.56;4994428;27;45399;-80
2022/10/11 07:54:42;;;;;;;;;0.67;0.33;;;;;15.95;52.73;-19636.09;4994793;27;45454;-80
2022/10/11 07:57:08;;;;;;;;;3.00;1.00;;;;;15.94;53.01;-19635.81;4995020;27;45966;-80
2022/10/11 07:59:33;;;;;;;;;2.00;1.00;;;;;16.00;53.29;-19637.31;4993475;27;46392;-80
2022/10/11 08:01:59;;;;;;;;;2.00;2.00;;;;;16.01;52.79;-19637.56;4977105;28;45469;-81
2022/10/11 08:04:25;;;;;;;;;1.00;0.67;;;;;15.96;52.86;-19636.22;4994820;28;45527;-80
2022/10/11 08:06:50;;;;;;;;;4.00;0.67;;;;;16.00;52.63;-19637.31;4977557;28;45512;-80
2022/10/11 08:09:16;;;;;;;;;1.00;1.00;;;;;16.01;52.93;-19637.72;4994010;27;46195;-80
2022/10/11 08:11:41;;;;;;;;;1.33;1.33;;;;;16.02;52.63;-19637.84;4994596;27;45442;-80
2022/10/11 08:14:07;;;;;;;;;1.00;1.00;;;;;16.06;52.76;-19638.91;4977012;28;45448;-80
2022/10/11 08:16:39;;;;;;;;;3.33;2.00;;;;;16.09;52.37;-19639.72;4994767;27;45580;-80
2022/10/11 08:19:06;;;;;;;;;6.00;3.00;;;;;16.15;52.82;-19641.31;4994366;27;45420;-80
2022/10/11 08:21:31;;;;;;;;;3.67;3.67;;;;;16.17;52.33;-19641.72;4994144;27;45297;-80
2022/10/11 08:23:57;;;;;;;;;4.67;1.00;;;;;16.27;51.88;-19644.41;4993921;27;45341;-80
2022/10/11 08:26:23;;;;;;;;;1.00;1.00;;;;;16.34;52.33;-19646.16;5067631;27;45262;-80
2022/10/11 08:28:48;;;;;;;;;7.67;7.67;;;;;16.49;52.01;-19650.03;4993902;27;46007;-80
2022/10/11 08:31:14;;;;;;;;;0.00;0.00;;;;;16.53;51.73;-19651.25;4976481;27;45377;-80
2022/10/11 08:33:40;;;;;;;;;1.00;1.00;;;;;16.62;52.35;-19653.66;4994605;27;45275;-80
2022/10/11 08:36:06;;;;;;;;;1.33;1.33;;;;;16.67;51.62;-19654.84;4994460;28;45235;-80
2022/10/11 08:38:32;;;;;;;;;4.33;2.00;;;;;16.75;52.04;-19656.88;4992754;27;47349;-80
2022/10/11 08:40:59;;;;;;;;;2.67;2.00;;;;;16.77;51.20;-19657.41;4993928;28;45431;-80
2022/10/11 08:43:45;;;;;;;;;2.00;0.00;;;;;16.89;51.19;-19660.63;4994232;28;45346;-80
2022/10/11 08:46:14;;;;;;;;;1.00;1.00;;;;;16.93;50.99;-19661.56;5000728;27;45418;-80
2022/10/11 08:48:46;;;;;;;;;1.33;0.33;;;;;16.96;50.91;-19662.50;4993930;28;46189;-80
2022/10/11 08:51:32;;;;;;;;;1.00;1.00;;;;;17.05;50.61;-19664.78;5029479;27;46372;-80
2022/10/11 08:54:39;;;;;;;;;2.67;1.00;;;;;17.15;50.33;-19667.44;5015884;27;45422;-80
2022/10/11 08:57:06;;;;;;;;;2.00;1.00;;;;;17.30;50.19;-19671.47;4994505;27;45265;-72
2022/10/11 08:59:45;;;;;;;;;3.33;1.00;;;;;17.38;50.34;-19673.34;4993667;27;46447;-72
2022/10/11 09:02:46;;;;;;;;;3.33;2.33;;;;;17.46;50.35;-19675.59;4976089;28;45432;-72
2022/10/11 09:05:16;;;;;;;;;5.00;1.00;;;;;17.55;50.32;-19677.88;4993908;28;45429;-72
2022/10/11 09:08:09;;;;;;;;;2.00;2.00;;;;;17.58;50.13;-19678.53;4992426;28;45399;-72
2022/10/11 09:10:55;;;;;;;;;2.00;2.00;;;;;17.63;49.57;-19679.88;4994879;27;45406;-72
2022/10/11 09:13:33;;;;;;;;;3.00;3.00;;;;;17.61;49.74;-19679.50;4983986;27;45425;-72
2022/10/11 09:16:07;;;;;;;;;4.00;2.33;;;;;17.67;50.12;-19681.09;4996561;27;45360;-72
2022/10/11 09:18:46;;;;;;;;;2.33;2.00;;;;;17.76;49.61;-19683.22;4996832;27;45480;-71
2022/10/11 09:21:12;;;;;;;;;5.00;3.00;;;;;17.84;49.35;-19685.38;4996444;27;45393;-72
2022/10/11 09:23:58;;;;;;;;;11.33;5.00;;;;;17.97;49.61;-19688.72;4996282;27;45674;-72
2022/10/11 09:26:34;;;;;;;;;1.67;1.33;;;;;18.52;49.51;-19703.28;4979034;27;45506;-72
2022/10/11 09:29:12;;;;;;;;;2.00;1.00;;;;;19.49;47.70;-19728.53;4979056;28;45500;-72
2022/10/11 09:31:37;;;;;;;;;2.00;2.00;;;;;20.73;46.46;-19760.81;4978961;28;45455;-72
2022/10/11 09:34:12;;;;;;;;;2.33;2.00;;;;;22.22;44.45;-19799.41;4996272;27;45473;-72
2022/10/11 09:36:53;;;;;;;;;2.00;2.00;;;;;23.76;41.56;-19837.44;4996179;27;45243;-72
2022/10/11 09:39:28;;;;;;;;;2.67;1.33;;;;;25.34;39.58;-18184.44;4984005;27;45446;-72
2022/10/11 09:41:59;;;;;;;;;1.00;1.00;;;;;26.88;37.76;-15501.69;4996171;27;46238;-72
2022/10/11 09:44:32;;;;;;;;;2.50;2.00;;;;;28.08;35.34;-8365.59;4978797;28;45413;-72
2022/10/11 09:46:58;;;;;;;;;2.00;2.00;;;;;29.12;33.54;1550.59;4982691;27;45487;-72
2022/10/11 09:49:41;;;;;;;;;2.25;2.25;;;;;30.38;32.54;8089.56;4996644;27;45354;-72
2022/10/11 09:52:14;;;;;;;;;2.00;2.00;;;;;31.29;30.50;25932.66;4995636;27;46288;-72
2022/10/11 09:54:45;;;;;;;;;5.25;2.00;;;;;32.01;28.71;40961.88;4996193;27;45450;-70
2022/10/11 09:57:30;;;;;;;;;2.75;1.00;;;;;32.69;28.88;44846.47;4996043;27;45525;-79
2022/10/11 10:00:06;;;;;;;;;0.75;0.75;;;;;33.37;27.62;48303.63;4996476;27;45357;-79
2022/10/11 10:02:52;;;;;;;;;4.25;1.00;;;;;34.12;26.98;50246.38;4995908;27;47458;-79
2022/10/11 10:05:21;;;;;;;;;1.00;1.00;;;;;34.98;25.68;52651.44;4996202;27;45460;-79
2022/10/11 10:08:03;;;;;;;;;3.00;2.00;;;;;35.32;25.27;54968.94;4995986;27;45433;-79
2022/10/11 10:10:28;;;;;;;;;1.00;1.00;;;;;35.95;24.42;55369.63;4978795;28;45383;-79
2022/10/11 10:12:57;;;;;;;;;1.67;1.00;;;;;36.47;24.01;56107.91;4996041;27;46010;-79
2022/10/11 10:15:27;;;;;;;;;1.33;1.33;;;;;36.92;24.06;57189.22;4995985;27;45365;-79
2022/10/11 10:17:53;;;;;;;;;4.33;1.00;;;;;37.22;23.22;58463.63;4996021;27;45469;-79
2022/10/11 10:20:23;;;;;;;;;2.67;1.33;;;;;37.44;22.83;59302.03;4978612;28;45354;-79
2022/10/11 10:22:48;;;;;;;;;2.67;2.00;;;;;37.54;21.96;59932.16;4977223;27;45541;-79
2022/10/11 10:25:34;;;;;;;;;5.33;3.00;;;;;37.90;22.14;60017.13;4988611;27;45488;-78
2022/10/11 10:28:15;;;;;;;;;0.00;0.00;;;;;38.22;22.36;60327.88;4989359;27;45319;-78
2022/10/11 10:30:56;;;;;;;;;2.67;1.00;;;;;38.46;21.62;60787.31;4985473;27;45548;-81
2022/10/11 10:33:29;;;;;;;;;5.33;4.00;;;;;38.61;21.62;60962.88;4994969;27;47934;-81
2022/10/11 10:36:07;;;;;;;;;2.33;2.33;;;;;38.61;20.93;61765.69;4995015;27;45285;-81
2022/10/11 10:38:39;;;;;;;;;5.00;3.67;;;;;38.44;20.67;62490.88;4986941;27;45499;-79
2022/10/11 10:41:10;;;;;;;;;0.00;0.00;;;;;38.41;21.44;62697.34;4977873;28;45378;-78
2022/10/11 10:43:40;;;;;;;;;0.67;0.00;;;;;38.58;20.81;62800.03;5068057;27;46681;-78
2022/10/11 10:46:24;;;;;;;;;1.00;1.00;;;;;38.66;20.71;63084.06;4995099;27;45460;-78
2022/10/11 10:49:16;;;;;;;;;1.67;0.67;;;;;38.68;20.37;63284.97;4994779;27;45401;-78
2022/10/11 10:51:48;;;;;;;;;2.67;0.00;;;;;38.77;19.60;63563.03;5011772;27;45730;-78
2022/10/11 10:54:32;;;;;;;;;1.67;0.33;;;;;38.71;19.82;63920.97;4991283;28;46297;-80
2022/10/11 10:57:02;;;;;;;;;2.00;2.00;;;;;38.61;19.29;64280.56;4975617;28;45370;-70
2022/10/11 10:59:59;;;;;;;;;0.00;0.00;;;;;38.59;19.44;64515.81;4986879;27;45423;-72
2022/10/11 11:02:33;;;;;;;;;0.33;0.00;;;;;38.39;18.67;65035.34;5029969;28;45487;-72
2022/10/11 11:05:17;;;;;;;;;1.00;1.00;;;;;38.32;18.62;65168.38;5018499;28;45639;-72
2022/10/11 11:07:48;;;;;;;;;2.00;0.67;;;;;38.29;19.41;65059.63;5032768;28;45482;-72
2022/10/11 11:10:25;;;;;;;;;1.33;1.33;;;;;38.15;19.07;65365.31;5034220;28;45367;-73
2022/10/11 11:13:22;;;;;;;;;0.00;0.00;;;;;37.97;18.85;65663.06;5028022;28;45419;-70
2022/10/11 11:16:17;;;;;;;;;0.00;0.00;;;;;37.84;19.53;65778.22;5038348;28;46782;-70
2022/10/11 11:18:59;;;;;;;;;1.00;0.33;;;;;37.63;18.60;66042.06;5037274;28;45474;-70
2022/10/11 11:21:34;;;;;;;;;0.67;0.67;;;;;37.55;18.80;66135.06;5050983;28;45458;-70
2022/10/11 11:24:24;;;;;;;;;1.67;0.67;;;;;37.32;19.45;66237.09;5042807;28;45473;-72
2022/10/11 11:27:10;;;;;;;;;1.00;1.00;;;;;37.01;19.83;66491.41;5037017;28;46640;-72
2022/10/11 11:29:58;;;;;;;;;1.00;1.00;;;;;36.64;19.78;66800.97;5034613;28;45707;-72
2022/10/11 11:32:31;;;;;;;;;1.50;1.50;;;;;36.19;19.95;66993.09;5047386;28;45388;-72
2022/10/11 11:35:07;;;;;;;;;0.25;0.25;;;;;35.86;20.77;67143.59;5046893;28;45563;-72
2022/10/11 11:37:39;;;;;;;;;0.00;0.00;;;;;35.55;20.09;67341.84;5043882;28;46323;-72
2022/10/11 11:40:15;;;;;;;;;3.00;1.00;;;;;35.29;20.74;67362.63;5005417;27;45432;-72
2022/10/11 11:42:54;;;;;;;;;0.25;0.25;;;;;35.04;20.82;67538.38;5010838;28;45321;-71